< < Back
Terminal Aerodrome Forecast


Current Version              Previous Versions:   1  2  3  4  5  6  7  8  9  

Terminal Aerodrome Forecast

170
FTUS42 KCAE 020500 CCA
TAFAGS
TAF COR
KAGS 020524Z 0203/0224 00000KT 6SM BR SCT250
      TEMPO 0203/0207 2SM BR
     FM020700 00000KT 5SM BR SKC
      TEMPO 0207/0209 1SM BR SCT002
     FM020900 00000KT 2SM BR SCT002
     FM021400 15004KT P6SM SCT050=



Latest METAR

248
SAUS70 KWBC 020600 RRO
MTRAGS
METAR KAGS 020553Z AUTO 00000KT 8SM CLR 16/16 A3004 RMK AO2 SLP171
T01560156 10211 20156 51008


USA.gov is the U.S. government's official web portal to all federal, state and local government web resources and services.